Time;durP1;ratioP1;P1;durP2;ratioP2;P2;SDS_P1;SDS_P2;PMS_P1;PMS_P2;Temp;Humidity;BMP_temperature;BMP_pressure;BME280_temperature;BME280_humidity;BME280_pressure;Samples;Min_cycle;Max_cycle;Signal;HPM_P1;HPM_P2
2021/10/09 00:00:08;;;;;;;31.67;22.15;;;11.40;92.90;;;;;;5030846;28;20034;-76
2021/10/09 00:02:35;;;;;;;30.70;22.13;;;11.50;93.00;;;;;;5030626;28;20402;-76
2021/10/09 00:05:01;;;;;;;35.28;25.58;;;11.40;93.00;;;;;;5030306;28;20065;-76
2021/10/09 00:07:28;;;;;;;34.10;23.77;;;11.40;93.00;;;;;;5030190;28;20098;-76
2021/10/09 00:09:58;;;;;;;28.77;20.75;;;11.40;93.10;;;;;;5013638;28;20132;-76
2021/10/09 00:12:25;;;;;;;32.58;23.35;;;11.40;93.10;;;;;;5046204;28;20029;-77
2021/10/09 00:14:51;;;;;;;32.25;23.50;;;11.40;93.10;;;;;;5029305;28;20034;-76
2021/10/09 00:17:19;;;;;;;29.90;23.50;;;11.40;93.10;;;;;;5013450;28;20166;-76
2021/10/09 00:19:46;;;;;;;35.88;25.90;;;11.40;93.10;;;;;;5029728;28;20056;-76
2021/10/09 00:22:12;;;;;;;33.80;24.60;;;11.40;93.10;;;;;;5031562;28;20029;-76
2021/10/09 00:24:38;;;;;;;27.88;21.73;;;11.30;93.10;;;;;;5030077;28;20026;-76
2021/10/09 00:27:05;;;;;;;31.45;21.88;;;11.30;93.10;;;;;;5013677;28;20037;-76
2021/10/09 00:29:31;;;;;;;38.65;27.25;;;11.40;93.10;;;;;;5013930;28;20179;-76
2021/10/09 00:31:58;;;;;;;32.33;24.27;;;11.30;93.00;;;;;;5088484;28;20048;-76
2021/10/09 00:34:24;;;;;;;34.47;24.30;;;11.30;93.00;;;;;;5093294;28;20020;-76
2021/10/09 00:36:50;;;;;;;33.85;23.48;;;11.30;93.10;;;;;;5093031;28;20046;-76
2021/10/09 00:39:17;;;;;;;39.70;25.40;;;11.30;93.10;;;;;;5093419;28;20028;-76
2021/10/09 00:41:44;;;;;;;33.63;25.08;;;11.30;93.10;;;;;;5076445;28;20034;-76
2021/10/09 00:44:17;;;;;;;41.58;26.60;;;11.30;93.10;;;;;;5076340;28;20043;-76
2021/10/09 00:46:45;;;;;;;35.30;24.10;;;11.20;93.10;;;;;;5094044;28;20236;-76
2021/10/09 00:49:17;;;;;;;29.92;22.73;;;11.20;93.00;;;;;;5093484;28;20046;-76
2021/10/09 00:51:44;;;;;;;33.85;23.65;;;11.20;93.00;;;;;;5094363;28;20357;-77
2021/10/09 00:54:10;;;;;;;33.20;23.02;;;11.20;93.00;;;;;;5075949;28;20027;-76
2021/10/09 00:56:38;;;;;;;35.92;24.00;;;11.20;93.20;;;;;;5094040;28;20077;-76
2021/10/09 00:59:04;;;;;;;34.38;25.45;;;11.20;92.90;;;;;;5093702;28;20016;-76
2021/10/09 01:01:30;;;;;;;35.63;24.30;;;11.10;92.80;;;;;;5091941;28;20031;-76
2021/10/09 01:03:57;;;;;;;35.70;26.30;;;11.10;92.80;;;;;;5092732;28;20039;-76
2021/10/09 01:06:23;;;;;;;34.90;25.65;;;11.10;92.90;;;;;;5092018;28;20035;-76
2021/10/09 01:08:48;;;;;;;32.45;23.85;;;11.00;92.90;;;;;;5092231;28;20091;-76
2021/10/09 01:11:14;;;;;;;36.13;23.95;;;11.00;93.00;;;;;;5091458;28;20479;-76
2021/10/09 01:13:40;;;;;;;34.28;23.52;;;11.00;93.00;;;;;;5091212;28;20095;-77
2021/10/09 01:16:24;;;;;;;35.70;25.63;;;11.00;93.00;;;;;;5090761;28;20032;-76
2021/10/09 01:18:52;;;;;;;32.00;23.77;;;10.90;93.00;;;;;;5090317;28;20103;-76
2021/10/09 01:21:20;;;;;;;39.58;27.73;;;10.90;93.00;;;;;;5073774;28;20443;-76
2021/10/09 01:23:47;;;;;;;38.15;26.73;;;10.90;93.00;;;;;;5073624;28;20119;-76
2021/10/09 01:26:14;;;;;;;40.22;26.75;;;11.00;93.00;;;;;;5090548;28;20032;-76
2021/10/09 01:28:47;;;;;;;41.08;26.67;;;10.90;93.00;;;;;;5107418;28;20032;-76
2021/10/09 01:31:14;;;;;;;51.05;31.52;;;10.90;93.00;;;;;;5089953;28;20086;-76
2021/10/09 01:33:41;;;;;;;43.75;29.42;;;10.90;93.10;;;;;;5090351;28;20035;-77
2021/10/09 01:36:07;;;;;;;48.35;30.88;;;10.90;93.20;;;;;;5091054;28;20153;-76
2021/10/09 01:38:35;;;;;;;44.17;29.75;;;10.90;93.20;;;;;;5089981;28;20122;-76
2021/10/09 01:41:01;;;;;;;42.73;28.97;;;10.90;93.20;;;;;;5091473;28;20400;-76
2021/10/09 01:43:27;;;;;;;43.70;28.35;;;10.90;93.20;;;;;;5091452;28;20473;-76
2021/10/09 01:45:53;;;;;;;42.80;28.23;;;10.90;93.20;;;;;;5091277;28;20162;-77
2021/10/09 01:48:30;;;;;;;55.95;32.42;;;10.90;93.30;;;;;;5090179;28;20055;-76
2021/10/09 01:50:55;;;;;;;42.95;28.52;;;10.90;93.40;;;;;;5091330;28;20032;-76
2021/10/09 01:53:21;;;;;;;37.03;26.70;;;10.90;93.30;;;;;;5073048;28;20024;-76
2021/10/09 01:55:46;;;;;;;37.00;26.35;;;10.90;93.30;;;;;;5090189;28;20074;-77
2021/10/09 01:58:12;;;;;;;37.88;26.13;;;10.90;93.20;;;;;;5089895;28;20051;-76
2021/10/09 02:00:38;;;;;;;37.50;25.63;;;10.90;93.10;;;;;;5089915;28;20046;-76
2021/10/09 02:03:05;;;;;;;41.67;26.98;;;10.90;93.10;;;;;;5090145;28;20031;-77
2021/10/09 02:05:32;;;;;;;40.20;27.45;;;10.90;93.00;;;;;;5091065;28;20110;-76
2021/10/09 02:07:58;;;;;;;44.40;28.77;;;10.80;93.20;;;;;;5089380;28;20439;-77
2021/10/09 02:10:24;;;;;;;40.92;27.13;;;10.80;92.90;;;;;;5090366;28;20032;-76
2021/10/09 02:12:51;;;;;;;38.42;27.50;;;10.80;92.90;;;;;;5090542;28;20031;-77
2021/10/09 02:16:08;;;;;;;43.90;28.70;;;10.70;92.90;;;;;;5089546;28;20040;-76
2021/10/09 02:26:03;;;;;;;42.97;26.15;;;10.60;92.90;;;;;;5090193;28;20039;-76
2021/10/09 02:28:29;;;;;;;40.20;27.00;;;10.60;92.90;;;;;;5091096;28;20032;-76
2021/10/09 02:30:56;;;;;;;42.85;30.20;;;10.50;92.90;;;;;;5072935;28;20052;-76
2021/10/09 02:33:23;;;;;;;39.20;27.13;;;10.60;92.90;;;;;;5089550;28;20016;-76
2021/10/09 02:35:49;;;;;;;46.20;30.40;;;10.50;92.90;;;;;;5089333;28;20725;-76
2021/10/09 02:38:16;;;;;;;52.65;32.88;;;10.50;93.00;;;;;;5072801;28;20032;-76
2021/10/09 02:40:44;;;;;;;39.00;26.33;;;10.50;93.00;;;;;;5089978;28;20024;-76
2021/10/09 02:43:11;;;;;;;42.03;28.00;;;10.50;93.00;;;;;;5073073;28;20028;-76
2021/10/09 02:45:38;;;;;;;43.95;27.90;;;10.50;93.00;;;;;;5089510;28;20028;-77
2021/10/09 02:48:06;;;;;;;48.63;31.33;;;10.40;92.90;;;;;;5072897;28;20876;-76
2021/10/09 02:50:33;;;;;;;50.78;30.40;;;10.50;93.00;;;;;;5090744;28;20031;-77
2021/10/09 02:53:00;;;;;;;56.08;32.90;;;10.40;93.00;;;;;;5072773;28;20067;-76
2021/10/09 02:55:26;;;;;;;48.00;30.02;;;10.40;93.00;;;;;;5072624;28;20032;-76
2021/10/09 02:57:53;;;;;;;44.78;29.55;;;10.30;93.10;;;;;;5072326;28;20043;-77
2021/10/09 03:00:21;;;;;;;45.30;29.17;;;10.30;93.10;;;;;;5089050;28;20126;-76
2021/10/09 03:02:48;;;;;;;47.50;30.17;;;10.30;93.10;;;;;;5088922;28;20032;-77
2021/10/09 03:05:14;;;;;;;44.92;28.08;;;10.30;93.20;;;;;;5072079;28;20042;-76
2021/10/09 03:07:41;;;;;;;39.92;28.50;;;10.30;93.20;;;;;;5090365;28;20036;-77
2021/10/09 03:10:09;;;;;;;42.03;28.10;;;10.30;93.10;;;;;;5089296;28;20097;-77
2021/10/09 03:12:35;;;;;;;44.03;27.75;;;10.30;93.00;;;;;;5092348;28;20204;-76
2021/10/09 03:15:02;;;;;;;44.95;29.58;;;10.20;92.90;;;;;;5093037;28;20031;-76
2021/10/09 03:17:29;;;;;;;39.17;26.27;;;10.20;92.90;;;;;;5093171;28;20038;-76
2021/10/09 03:19:55;;;;;;;42.85;27.63;;;10.20;92.90;;;;;;5076464;28;20036;-76
2021/10/09 03:22:21;;;;;;;40.05;26.75;;;10.10;92.80;;;;;;5109961;27;20123;-76
2021/10/09 03:24:46;;;;;;;43.70;26.20;;;10.10;92.80;;;;;;5092793;28;20119;-76
2021/10/09 03:27:12;;;;;;;39.63;26.95;;;10.10;92.70;;;;;;5092720;28;20116;-76
2021/10/09 03:29:37;;;;;;;37.72;26.10;;;10.10;92.70;;;;;;5093973;28;20031;-76
2021/10/09 03:32:04;;;;;;;46.03;27.60;;;10.00;92.70;;;;;;5092724;28;20056;-76
2021/10/09 03:34:32;;;;;;;42.88;25.98;;;10.10;92.80;;;;;;5094050;28;20026;-76
2021/10/09 03:37:04;;;;;;;37.90;26.10;;;10.00;92.70;;;;;;5092554;28;20031;-76
2021/10/09 03:39:32;;;;;;;42.70;24.95;;;9.90;92.70;;;;;;5092449;28;20059;-76
2021/10/09 03:42:04;;;;;;;39.08;25.98;;;9.90;92.70;;;;;;5093989;28;20107;-76
2021/10/09 03:44:35;;;;;;;34.47;23.85;;;9.90;92.60;;;;;;5092519;28;20027;-76
2021/10/09 03:54:42;;;;;;;34.30;23.73;;;9.80;92.50;;;;;;5093501;28;20046;-77
2021/10/09 03:57:08;;;;;;;35.17;23.30;;;9.80;92.50;;;;;;5092911;28;20036;-76
2021/10/09 03:59:34;;;;;;;31.80;21.38;;;9.70;92.50;;;;;;5092086;28;20024;-76
2021/10/09 04:02:01;;;;;;;29.17;20.92;;;9.70;92.50;;;;;;5075293;28;20127;-77
2021/10/09 04:04:29;;;;;;;30.02;20.58;;;9.70;92.50;;;;;;5075352;28;20036;-76
2021/10/09 04:06:55;;;;;;;30.15;21.38;;;9.70;92.40;;;;;;5108878;27;20059;-76
2021/10/09 04:09:21;;;;;;;33.95;22.63;;;9.70;92.40;;;;;;5074647;28;20064;-76
2021/10/09 04:11:48;;;;;;;34.42;22.88;;;9.70;92.40;;;;;;5074602;28;20031;-77
2021/10/09 04:14:14;;;;;;;36.58;24.80;;;9.60;92.30;;;;;;5074528;28;20557;-76
2021/10/09 04:16:43;;;;;;;35.83;23.17;;;9.60;92.30;;;;;;5074888;28;20035;-76
2021/10/09 04:19:10;;;;;;;38.67;23.63;;;9.60;92.30;;;;;;5108903;28;20028;-76
2021/10/09 04:21:36;;;;;;;36.70;24.08;;;9.50;92.40;;;;;;5092789;28;20020;-76
2021/10/09 04:24:03;;;;;;;40.00;25.50;;;9.50;92.50;;;;;;5109649;27;20036;-76
2021/10/09 04:26:30;;;;;;;50.17;28.73;;;9.50;92.50;;;;;;5076832;28;20025;-76
2021/10/09 04:28:56;;;;;;;40.05;25.17;;;9.50;92.50;;;;;;5093398;28;20035;-76
2021/10/09 04:31:23;;;;;;;51.42;29.05;;;9.50;92.50;;;;;;5109699;28;20052;-76
2021/10/09 04:33:50;;;;;;;41.55;26.58;;;9.50;92.60;;;;;;5076474;28;20039;-76
2021/10/09 04:36:16;;;;;;;41.00;25.60;;;9.50;92.60;;;;;;5093142;28;20024;-76
2021/10/09 04:38:42;;;;;;;47.45;28.20;;;9.50;92.70;;;;;;5076643;28;20028;-76
2021/10/09 04:41:09;;;;;;;42.30;27.80;;;9.40;92.60;;;;;;5076251;28;20123;-76
2021/10/09 04:43:36;;;;;;;41.00;26.30;;;9.40;92.60;;;;;;5110384;28;20456;-76
2021/10/09 04:46:02;;;;;;;38.20;26.05;;;9.40;92.60;;;;;;5076307;28;20032;-76
2021/10/09 04:48:29;;;;;;;34.38;23.60;;;9.40;92.70;;;;;;5109983;28;20060;-76
2021/10/09 04:50:55;;;;;;;37.28;23.05;;;9.40;92.70;;;;;;5093889;28;20483;-76
2021/10/09 04:53:21;;;;;;;37.78;23.77;;;9.30;92.70;;;;;;5093062;28;20028;-76
2021/10/09 04:55:46;;;;;;;40.03;22.75;;;9.40;92.60;;;;;;5093032;28;20024;-76
2021/10/09 04:58:12;;;;;;;40.83;23.45;;;9.40;92.60;;;;;;5092215;28;20028;-76
2021/10/09 05:00:37;;;;;;;37.05;23.02;;;9.40;92.60;;;;;;5092780;28;20366;-76
2021/10/09 05:03:03;;;;;;;39.17;23.30;;;9.40;92.60;;;;;;5094128;28;20107;-76
2021/10/09 05:05:28;;;;;;;41.40;25.05;;;9.40;92.60;;;;;;5075886;28;20032;-76
2021/10/09 05:07:54;;;;;;;42.72;23.80;;;9.30;92.80;;;;;;5093995;28;20448;-76
2021/10/09 05:10:20;;;;;;;43.60;25.63;;;9.30;92.50;;;;;;5092565;28;20106;-76
2021/10/09 05:12:45;;;;;;;46.72;25.45;;;9.20;92.60;;;;;;5092650;28;20496;-76
2021/10/09 05:15:12;;;;;;;108.88;27.33;;;9.20;92.60;;;;;;5092890;28;20035;-76
2021/10/09 05:17:38;;;;;;;92.18;25.15;;;9.20;92.60;;;;;;5092645;28;20032;-76
2021/10/09 05:20:05;;;;;;;539.50;42.13;;;9.20;92.70;;;;;;5075735;28;20036;-76
2021/10/09 05:22:31;;;;;;;175.38;26.17;;;9.20;92.80;;;;;;5092515;28;20063;-76
2021/10/09 05:24:57;;;;;;;107.78;25.88;;;9.20;92.80;;;;;;5092860;28;20028;-76
2021/10/09 05:27:26;;;;;;;113.00;25.98;;;9.20;92.70;;;;;;5092503;28;20886;-76
2021/10/09 05:29:52;;;;;;;106.73;28.63;;;9.10;92.70;;;;;;5092461;28;20115;-76
2021/10/09 05:32:24;;;;;;;52.00;25.42;;;9.10;92.80;;;;;;5031560;28;20077;-76
2021/10/09 05:34:50;;;;;;;84.88;24.17;;;9.00;92.80;;;;;;5044893;28;20794;-76
2021/10/09 05:37:16;;;;;;;53.72;23.25;;;9.00;92.80;;;;;;5012641;28;20482;-76
2021/10/09 05:39:41;;;;;;;81.60;24.38;;;9.00;92.80;;;;;;5045684;28;20033;-76
2021/10/09 05:42:07;;;;;;;54.88;22.30;;;9.00;92.80;;;;;;5030188;28;20446;-76
2021/10/09 05:44:34;;;;;;;150.88;23.60;;;9.00;92.80;;;;;;5028350;28;20068;-76
2021/10/09 05:47:00;;;;;;;160.02;26.50;;;9.00;92.90;;;;;;5028357;28;20072;-76
2021/10/09 05:49:27;;;;;;;90.18;23.02;;;8.90;92.80;;;;;;5028444;28;20038;-76
2021/10/09 05:54:35;;;;;;;65.85;26.15;;;8.80;92.80;;;;;;5028877;28;20029;-76
2021/10/09 05:57:11;;;;;;;43.90;22.98;;;8.80;92.90;;;;;;5028466;28;20018;-76
2021/10/09 06:44:05;;;;;;;47.95;28.88;;;9.00;93.10;;;;;;5029891;28;20037;-76
2021/10/09 06:49:20;;;;;;;40.15;25.67;;;9.10;93.10;;;;;;5032992;28;20502;-76
2021/10/09 06:59:59;;;;;;;64.32;38.42;;;9.20;93.20;;;;;;5032938;28;20077;-76
2021/10/09 07:02:24;;;;;;;69.78;41.22;;;9.30;93.10;;;;;;5048085;28;20120;-76
2021/10/09 07:04:50;;;;;;;86.82;45.22;;;9.30;93.10;;;;;;5031542;28;20470;-76
2021/10/09 07:07:18;;;;;;;82.63;43.72;;;9.40;93.10;;;;;;5030529;28;20786;-73
2021/10/09 07:09:44;;;;;;;80.47;45.55;;;9.50;93.10;;;;;;5046008;28;20033;-73
2021/10/09 07:12:10;;;;;;;87.53;45.45;;;9.50;93.10;;;;;;5031597;28;20063;-73
2021/10/09 07:14:36;;;;;;;89.63;48.28;;;9.60;93.20;;;;;;5013749;28;20453;-74
2021/10/09 07:17:01;;;;;;;80.43;47.05;;;9.70;93.20;;;;;;5031628;28;20025;-73
2021/10/09 07:19:28;;;;;;;98.82;51.75;;;9.80;93.10;;;;;;5046903;28;20033;-74
2021/10/09 07:21:54;;;;;;;75.93;43.50;;;9.90;93.10;;;;;;5013788;28;20025;-74
2021/10/09 07:24:20;;;;;;;72.07;40.97;;;10.00;93.10;;;;;;5029519;28;20044;-73
2021/10/09 07:26:47;;;;;;;78.50;43.22;;;10.10;93.00;;;;;;5046731;28;20026;-73
2021/10/09 07:29:13;;;;;;;75.20;42.92;;;10.20;92.90;;;;;;5029689;28;20667;-73
2021/10/09 07:31:40;;;;;;;73.50;41.80;;;10.30;92.90;;;;;;5069351;28;20052;-73
2021/10/09 07:34:06;;;;;;;68.93;40.00;;;10.40;92.90;;;;;;5077506;28;20024;-76
2021/10/09 07:36:33;;;;;;;66.97;40.22;;;10.50;92.90;;;;;;5094561;28;20028;-76
2021/10/09 07:38:59;;;;;;;68.15;38.70;;;10.60;92.80;;;;;;5077725;28;20127;-76
2021/10/09 07:41:25;;;;;;;64.72;39.00;;;10.70;92.70;;;;;;5094529;28;20078;-76
2021/10/09 07:43:52;;;;;;;65.78;38.60;;;10.80;92.50;;;;;;5094694;28;20028;-76
2021/10/09 07:46:18;;;;;;;66.40;39.92;;;10.90;92.50;;;;;;5111301;28;20472;-76
2021/10/09 07:48:45;;;;;;;64.55;39.83;;;10.90;92.40;;;;;;5128441;27;20032;-76
2021/10/09 07:51:11;;;;;;;67.15;40.00;;;11.00;92.40;;;;;;5077635;28;20028;-76
2021/10/09 07:53:38;;;;;;;65.60;41.30;;;11.00;92.40;;;;;;5077302;28;20024;-76
2021/10/09 07:56:05;;;;;;;69.75;41.97;;;11.10;92.40;;;;;;5094119;28;20023;-76
2021/10/09 07:58:30;;;;;;;68.10;40.20;;;11.10;92.30;;;;;;5094238;28;20108;-76
2021/10/09 08:00:56;;;;;;;68.22;39.10;;;11.20;92.30;;;;;;5077165;28;20459;-76
2021/10/09 08:03:24;;;;;;;64.97;38.75;;;11.30;92.20;;;;;;5095433;28;20028;-76
2021/10/09 08:05:52;;;;;;;58.63;37.37;;;11.40;92.20;;;;;;5094092;28;20102;-76
2021/10/09 08:08:22;;;;;;;61.60;37.55;;;11.50;92.20;;;;;;5093583;28;20058;-76
2021/10/09 08:10:49;;;;;;;63.38;38.72;;;11.50;92.10;;;;;;5093651;28;20060;-76
2021/10/09 08:13:16;;;;;;;54.13;35.08;;;11.60;92.10;;;;;;5076875;28;20426;-76
2021/10/09 08:15:43;;;;;;;52.10;33.92;;;11.70;92.10;;;;;;5076997;28;20114;-76
2021/10/09 08:18:09;;;;;;;61.38;36.38;;;11.90;92.00;;;;;;5094794;28;20024;-77
2021/10/09 08:20:38;;;;;;;55.20;34.70;;;12.00;91.90;;;;;;5076946;28;20111;-76
2021/10/09 08:23:14;;;;;;;50.78;33.50;;;12.20;91.80;;;;;;5093558;28;20034;-76
2021/10/09 08:36:36;;;;;;;49.13;34.42;;;12.60;91.20;;;;;;5010512;28;20056;-76
2021/10/09 08:39:04;;;;;;;51.50;33.92;;;12.70;91.20;;;;;;5010845;28;20034;-76
2021/10/09 08:41:30;;;;;;;58.35;34.88;;;12.70;91.10;;;;;;5010559;28;20062;-76
2021/10/09 08:43:56;;;;;;;47.58;33.65;;;12.80;91.00;;;;;;5011662;28;20022;-76
2021/10/09 08:46:22;;;;;;;53.33;34.30;;;12.90;90.90;;;;;;5011759;28;20026;-76
2021/10/09 08:48:50;;;;;;;48.00;32.97;;;13.00;90.90;;;;;;5011585;28;20021;-76
2021/10/09 08:51:25;;;;;;;47.03;31.55;;;13.10;90.80;;;;;;4994357;28;20061;-76
2021/10/09 08:53:53;;;;;;;49.92;33.38;;;13.20;90.80;;;;;;4993992;28;20030;-77
2021/10/09 08:56:38;;;;;;;52.08;32.70;;;13.30;90.60;;;;;;5010303;28;20026;-76
2021/10/09 08:59:23;;;;;;;48.13;32.03;;;13.40;90.40;;;;;;5009974;28;20038;-76
2021/10/09 09:02:16;;;;;;;45.63;30.17;;;13.50;90.20;;;;;;5010507;28;20025;-76
2021/10/09 09:05:00;;;;;;;43.83;28.92;;;13.60;89.80;;;;;;5009139;28;20029;-76
2021/10/09 09:40:42;;;;;;;36.15;24.05;;;14.90;84.60;;;;;;5030171;28;20108;-76
2021/10/09 09:43:09;;;;;;;34.38;25.20;;;15.00;84.50;;;;;;5029212;28;20025;-77
2021/10/09 09:45:36;;;;;;;41.80;23.27;;;15.10;83.40;;;;;;5029197;28;20074;-77
2021/10/09 09:48:04;;;;;;;36.95;24.50;;;15.10;83.10;;;;;;5010866;28;20059;-77
2021/10/09 09:50:31;;;;;;;34.60;23.08;;;15.30;83.40;;;;;;5028786;28;20124;-76
2021/10/09 09:53:00;;;;;;;33.10;22.52;;;15.40;83.00;;;;;;5027600;28;20029;-77
2021/10/09 09:55:27;;;;;;;36.60;23.75;;;15.50;82.40;;;;;;5027379;28;20507;-77
2021/10/09 09:57:53;;;;;;;33.38;22.40;;;15.50;81.70;;;;;;5027095;28;20030;-77
2021/10/09 10:00:21;;;;;;;34.03;22.98;;;15.60;81.80;;;;;;5044050;28;20068;-77
2021/10/09 10:02:53;;;;;;;38.08;22.45;;;15.60;80.60;;;;;;5028680;28;20033;-77
2021/10/09 10:05:22;;;;;;;34.60;22.02;;;15.60;80.90;;;;;;5028425;28;20024;-77
2021/10/09 10:07:48;;;;;;;33.92;22.05;;;15.70;81.10;;;;;;5043197;28;20570;-77
2021/10/09 10:10:15;;;;;;;36.22;21.60;;;15.80;80.00;;;;;;5028428;28;20082;-77
2021/10/09 10:12:42;;;;;;;36.15;23.10;;;15.90;79.90;;;;;;5043824;28;20033;-77
2021/10/09 10:15:11;;;;;;;35.53;20.85;;;15.90;79.10;;;;;;5010840;28;20030;-77
2021/10/09 10:17:45;;;;;;;33.15;20.25;;;15.90;78.90;;;;;;5043705;28;20102;-77
2021/10/09 10:20:14;;;;;;;29.10;19.50;;;16.00;78.30;;;;;;5011102;28;20022;-77
2021/10/09 10:22:42;;;;;;;29.23;20.27;;;16.10;78.80;;;;;;5031399;28;20485;-77
2021/10/09 10:25:30;;;;;;;33.78;20.77;;;16.20;78.60;;;;;;5047228;28;20030;-77
2021/10/09 10:28:25;;;;;;;35.58;22.95;;;16.30;78.10;;;;;;5031736;28;20053;-77
2021/10/09 10:31:03;;;;;;;34.63;23.10;;;16.30;77.60;;;;;;5046951;28;20137;-77
2021/10/09 10:33:32;;;;;;;36.65;21.55;;;16.30;77.70;;;;;;5031809;28;20026;-77
2021/10/09 10:35:58;;;;;;;33.40;21.13;;;16.20;77.60;;;;;;5031685;28;20042;-77
2021/10/09 10:38:33;;;;;;;30.95;21.35;;;16.30;77.90;;;;;;5030314;28;20024;-77
2021/10/09 10:41:05;;;;;;;32.92;20.90;;;16.40;77.30;;;;;;5046467;28;20033;-77
2021/10/09 10:46:27;;;;;;;36.42;20.50;;;16.50;76.80;;;;;;5031176;28;20054;-77
2021/10/09 10:51:42;;;;;;;26.75;19.45;;;16.60;76.20;;;;;;5031421;28;20048;-77
2021/10/09 10:56:57;;;;;;;27.48;17.58;;;16.70;76.40;;;;;;5031362;28;20394;-77
2021/10/09 10:59:35;;;;;;;29.42;17.27;;;16.90;76.40;;;;;;5031226;28;20389;-77
2021/10/09 11:02:11;;;;;;;32.80;18.00;;;17.00;76.50;;;;;;5029785;28;20029;-77
2021/10/09 11:04:40;;;;;;;26.92;18.27;;;17.10;74.90;;;;;;5046666;28;20410;-77
2021/10/09 11:07:07;;;;;;;29.38;17.77;;;17.20;75.20;;;;;;5046788;28;20086;-77
2021/10/09 11:09:33;;;;;;;23.80;17.58;;;17.20;74.00;;;;;;5030950;28;20081;-77
2021/10/09 11:12:00;;;;;;;27.45;17.08;;;17.30;74.40;;;;;;5031284;28;20017;-77
2021/10/09 11:14:26;;;;;;;23.13;16.60;;;17.40;74.50;;;;;;5029582;28;20026;-77
2021/10/09 11:17:03;;;;;;;28.88;16.95;;;17.50;73.60;;;;;;5013495;28;20136;-74
2021/10/09 11:19:46;;;;;;;28.15;16.40;;;17.60;73.40;;;;;;5013709;28;20029;-75
2021/10/09 11:22:15;;;;;;;23.05;15.63;;;17.60;73.30;;;;;;5013814;28;20441;-74
2021/10/09 11:24:49;;;;;;;26.00;14.95;;;17.70;72.90;;;;;;5013514;28;20017;-74
2021/10/09 11:27:16;;;;;;;22.75;14.82;;;17.70;72.10;;;;;;5031367;28;20033;-74
2021/10/09 11:30:02;;;;;;;27.65;15.55;;;17.80;72.30;;;;;;5013436;28;20120;-75
2021/10/09 11:32:33;;;;;;;24.45;16.70;;;17.80;72.20;;;;;;5093223;28;20130;-75
2021/10/09 11:34:59;;;;;;;27.05;16.85;;;17.90;71.90;;;;;;5094893;28;20020;-75
2021/10/09 11:37:25;;;;;;;25.58;16.90;;;17.90;71.80;;;;;;5127465;27;20400;-74
2021/10/09 11:39:56;;;;;;;25.63;16.88;;;17.90;71.40;;;;;;5094674;28;20480;-75
2021/10/09 11:42:37;;;;;;;26.30;15.30;;;18.00;71.00;;;;;;5127472;27;20032;-75
2021/10/09 11:53:47;;;;;;;28.00;15.52;;;18.10;71.10;;;;;;5093861;28;20128;-76
2021/10/09 11:56:14;;;;;;;26.33;16.40;;;18.30;70.50;;;;;;5113547;27;20050;-76
2021/10/09 11:58:48;;;;;;;26.92;16.70;;;18.20;70.30;;;;;;5110039;27;20392;-76
2021/10/09 12:01:36;;;;;;;23.85;15.15;;;18.20;70.40;;;;;;5094590;28;20427;-76
2021/10/09 12:04:21;;;;;;;19.77;15.00;;;18.20;71.10;;;;;;5128025;27;20024;-76
2021/10/09 12:06:53;;;;;;;22.40;14.73;;;18.20;70.40;;;;;;5094617;28;20111;-76
2021/10/09 12:09:38;;;;;;;22.38;14.50;;;18.20;70.20;;;;;;5093289;28;20028;-76
2021/10/09 12:12:35;;;;;;;25.83;14.73;;;18.20;69.00;;;;;;5094910;28;20020;-76
2021/10/09 12:15:01;;;;;;;21.88;13.93;;;18.20;69.50;;;;;;5093742;28;20063;-77
2021/10/09 12:17:37;;;;;;;22.20;14.27;;;18.30;69.50;;;;;;5093280;28;20428;-77
2021/10/09 12:20:08;;;;;;;27.75;13.73;;;18.30;69.00;;;;;;5094593;28;20064;-77
2021/10/09 12:22:44;;;;;;;23.38;13.38;;;18.30;67.60;;;;;;5094876;28;20028;-77
2021/10/09 12:25:26;;;;;;;25.75;14.60;;;18.30;68.70;;;;;;5127942;27;20035;-77
2021/10/09 12:28:01;;;;;;;22.15;13.93;;;18.30;68.90;;;;;;5095100;28;20089;-77
2021/10/09 12:30:36;;;;;;;25.60;14.00;;;18.40;69.20;;;;;;5081590;28;20052;-77
2021/10/09 12:33:03;;;;;;;21.17;13.02;;;18.40;68.20;;;;;;5013903;28;20021;-77
2021/10/09 12:35:32;;;;;;;23.35;13.00;;;18.40;68.10;;;;;;5047217;28;20049;-77
2021/10/09 12:37:59;;;;;;;23.48;12.95;;;18.40;67.90;;;;;;5030112;28;20463;-77
2021/10/09 12:40:27;;;;;;;20.45;13.55;;;18.40;67.90;;;;;;5046923;28;20074;-77
2021/10/09 12:43:00;;;;;;;23.35;14.07;;;18.40;67.50;;;;;;5013786;28;20059;-77
2021/10/09 12:45:27;;;;;;;23.35;13.57;;;18.40;67.30;;;;;;5027765;28;20037;-77
2021/10/09 12:47:57;;;;;;;25.70;13.90;;;18.40;67.70;;;;;;5045458;28;20363;-78
2021/10/09 12:50:24;;;;;;;23.80;12.50;;;18.50;67.60;;;;;;5030127;28;20031;-77
2021/10/09 12:52:50;;;;;;;22.45;11.48;;;18.50;67.60;;;;;;5012047;28;20033;-77
2021/10/09 12:55:16;;;;;;;16.33;11.43;;;18.50;66.80;;;;;;5029812;28;20208;-77
2021/10/09 12:57:51;;;;;;;24.40;12.45;;;18.50;67.60;;;;;;5029577;28;20037;-77
2021/10/09 13:00:21;;;;;;;17.35;11.95;;;18.50;66.50;;;;;;5011411;28;20036;-77
2021/10/09 13:02:48;;;;;;;17.92;12.00;;;18.50;65.60;;;;;;5033008;28;20073;-78
2021/10/09 13:05:14;;;;;;;18.92;11.70;;;18.40;65.80;;;;;;5027844;28;20037;-78
2021/10/09 13:07:40;;;;;;;17.52;11.55;;;18.50;66.30;;;;;;5049915;28;20044;-78
2021/10/09 13:10:07;;;;;;;19.05;12.00;;;18.50;65.80;;;;;;5014814;28;20029;-78
2021/10/09 13:12:34;;;;;;;25.85;11.43;;;18.40;65.00;;;;;;5032420;28;20381;-78
2021/10/09 13:15:01;;;;;;;20.88;12.48;;;18.40;65.00;;;;;;5032686;28;20112;-78
2021/10/09 13:17:27;;;;;;;20.02;12.85;;;18.30;65.00;;;;;;5028841;28;20022;-78
2021/10/09 13:19:54;;;;;;;23.17;13.75;;;18.30;65.00;;;;;;5041525;28;20557;-78
2021/10/09 13:22:20;;;;;;;20.70;12.73;;;18.30;65.90;;;;;;5025860;28;20067;-78
2021/10/09 13:24:47;;;;;;;17.63;11.98;;;18.30;66.30;;;;;;5031743;28;20029;-78
2021/10/09 13:27:13;;;;;;;19.63;10.65;;;18.30;66.40;;;;;;5012555;28;20026;-80
2021/10/09 13:29:40;;;;;;;20.40;10.45;;;18.30;67.00;;;;;;5028605;28;20038;-79
2021/10/09 13:32:06;;;;;;;22.20;12.50;;;18.30;66.80;;;;;;5011566;28;20045;-79
2021/10/09 13:34:35;;;;;;;20.77;12.25;;;18.30;66.30;;;;;;5028563;28;20068;-80
2021/10/09 13:37:01;;;;;;;22.58;12.65;;;18.30;65.70;;;;;;5026267;28;20029;-79
2021/10/09 13:39:28;;;;;;;17.85;11.80;;;18.30;65.00;;;;;;5015125;28;20434;-80
2021/10/09 13:41:54;;;;;;;23.08;12.48;;;18.20;65.20;;;;;;5015516;28;20120;-78
2021/10/09 13:44:21;;;;;;;23.83;13.18;;;18.20;65.90;;;;;;5031950;28;20447;-78
2021/10/09 13:46:48;;;;;;;28.17;12.88;;;18.20;65.50;;;;;;5010542;28;20124;-78
2021/10/09 13:49:15;;;;;;;19.20;11.43;;;18.20;64.40;;;;;;5054417;28;20025;-78
2021/10/09 13:51:41;;;;;;;18.30;12.35;;;18.20;65.20;;;;;;5019736;28;20036;-79
2021/10/09 13:54:07;;;;;;;17.40;11.77;;;18.20;65.70;;;;;;5014665;28;20362;-78
2021/10/09 13:56:35;;;;;;;17.73;13.20;;;18.20;66.20;;;;;;5030671;28;20033;-78
2021/10/09 13:59:01;;;;;;;22.48;13.52;;;18.10;66.40;;;;;;5014684;28;20041;-78
2021/10/09 14:01:26;;;;;;;21.98;12.07;;;18.10;66.10;;;;;;5014767;28;20041;-78
2021/10/09 14:03:52;;;;;;;17.60;11.73;;;18.10;66.40;;;;;;5030842;28;20033;-78
2021/10/09 14:06:18;;;;;;;25.90;13.27;;;18.10;66.40;;;;;;5029533;28;20645;-78
2021/10/09 14:08:43;;;;;;;18.63;12.82;;;18.10;66.20;;;;;;5049018;28;20051;-78
2021/10/09 14:11:09;;;;;;;27.60;13.35;;;18.00;66.30;;;;;;5029027;28;20061;-78
2021/10/09 14:13:34;;;;;;;23.33;14.50;;;18.00;66.50;;;;;;5031036;28;20496;-78
2021/10/09 14:16:01;;;;;;;19.95;12.20;;;17.90;66.10;;;;;;5048652;28;20050;-78
2021/10/09 14:18:27;;;;;;;19.73;12.10;;;17.90;66.70;;;;;;5049120;28;20029;-78
2021/10/09 14:20:55;;;;;;;22.75;12.20;;;17.90;67.10;;;;;;5048710;28;20036;-78
2021/10/09 14:23:22;;;;;;;19.35;12.15;;;17.90;66.90;;;;;;5034068;28;20025;-78
2021/10/09 14:25:48;;;;;;;20.02;12.93;;;17.80;67.00;;;;;;5017365;28;20018;-78
2021/10/09 14:28:16;;;;;;;17.45;12.02;;;17.80;68.30;;;;;;5046222;28;20040;-78
2021/10/09 14:30:42;;;;;;;18.05;12.27;;;17.70;67.70;;;;;;5030614;28;20041;-78
2021/10/09 14:33:09;;;;;;;21.38;12.80;;;17.70;68.00;;;;;;5030801;28;20039;-78
2021/10/09 14:35:36;;;;;;;19.25;12.85;;;17.60;68.10;;;;;;5048245;28;20056;-78
2021/10/09 14:38:02;;;;;;;21.13;12.30;;;17.60;67.50;;;;;;5030969;28;20034;-78
2021/10/09 14:40:29;;;;;;;20.80;12.60;;;17.60;67.30;;;;;;5048305;28;20033;-78
2021/10/09 14:42:55;;;;;;;21.73;12.63;;;17.50;67.00;;;;;;5048758;28;20100;-77
2021/10/09 14:45:22;;;;;;;21.63;11.45;;;17.50;66.50;;;;;;5030599;28;20434;-78
2021/10/09 15:18:05;;;;;;;18.80;11.32;;;17.00;68.70;;;;;;5034716;28;20133;-77